Time;durP1;ratioP1;P1;durP2;ratioP2;P2;SDS_P1;SDS_P2;PMS_P1;PMS_P2;Temp;Humidity;BMP_temperature;BMP_pressure;BME280_temperature;BME280_humidity;BME280_pressure;Samples;Min_cycle;Max_cycle;Signal;HPM_P1;HPM_P2
2021/12/03 00:03:25;;;;;;;0.68;0.68;;;;;;;15.90;46.09;94700.06;10667855;27;20069;-80
2021/12/03 00:08:26;;;;;;;0.73;0.73;;;;;;;15.88;45.93;94701.31;10649203;27;20546;-80
2021/12/03 00:13:30;;;;;;;0.80;0.80;;;;;;;15.86;46.09;94698.94;10649182;27;20113;-80
2021/12/03 00:18:33;;;;;;;0.70;0.70;;;;;;;15.86;45.86;94708.53;10667368;27;20038;-80
2021/12/03 00:23:35;;;;;;;0.80;0.80;;;;;;;15.87;46.17;94710.91;10667208;27;20054;-80
2021/12/03 00:28:38;;;;;;;0.90;0.90;;;;;;;15.85;45.88;94727.78;10666542;27;20058;-80
2021/12/03 00:33:40;;;;;;;0.90;0.90;;;;;;;15.85;45.73;94730.38;10666504;27;20043;-80
2021/12/03 00:38:46;;;;;;;0.82;0.82;;;;;;;15.84;45.97;94755.59;10647643;27;20043;-80
2021/12/03 00:43:51;;;;;;;0.70;0.70;;;;;;;15.85;46.10;94775.41;10665914;27;20035;-80
2021/12/03 00:48:55;;;;;;;0.60;0.60;;;;;;;15.84;45.94;94778.22;10666147;27;20492;-79
2021/12/03 00:53:56;;;;;;;0.60;0.60;;;;;;;15.84;46.08;94801.63;10665886;27;20083;-80
2021/12/03 00:58:58;;;;;;;0.75;0.75;;;;;;;15.83;46.03;94813.88;10665665;27;20058;-79
2021/12/03 01:04:00;;;;;;;0.73;0.73;;;;;;;15.82;45.92;94827.88;10647227;27;20046;-79
2021/12/03 01:09:03;;;;;;;0.60;0.60;;;;;;;15.81;46.16;94841.91;10665477;27;20160;-79
2021/12/03 01:14:05;;;;;;;0.68;0.68;;;;;;;15.80;46.14;94847.34;10665146;27;20039;-79
2021/12/03 01:19:06;;;;;;;0.77;0.77;;;;;;;15.80;45.93;94858.53;10646730;27;20061;-79
2021/12/03 01:24:08;;;;;;;0.70;0.70;;;;;;;15.81;45.80;94875.72;10646778;27;20491;-80
2021/12/03 01:29:10;;;;;;;0.70;0.70;;;;;;;15.81;45.96;94882.75;10664888;27;20055;-80
2021/12/03 01:34:15;;;;;;;0.70;0.70;;;;;;;15.79;46.19;94895.97;10664648;27;20050;-80
2021/12/03 01:39:17;;;;;;;0.70;0.70;;;;;;;15.79;46.10;94898.56;10664404;27;20045;-80
2021/12/03 01:44:18;;;;;;;0.70;0.70;;;;;;;15.79;46.18;94906.38;10664457;27;20050;-79
2021/12/03 01:49:20;;;;;;;0.55;0.55;;;;;;;15.78;46.13;94897.78;10664480;27;20050;-79
2021/12/03 01:54:22;;;;;;;0.77;0.75;;;;;;;15.78;45.84;94889.19;10669956;27;20353;-79
2021/12/03 01:59:23;;;;;;;0.70;0.70;;;;;;;15.76;46.45;94889.41;10672702;27;20042;-80
2021/12/03 02:04:25;;;;;;;0.50;0.50;;;;;;;15.76;46.03;94901.56;10672682;27;20062;-80
2021/12/03 02:09:27;;;;;;;0.63;0.63;;;;;;;15.77;45.82;94890.97;10672303;27;20049;-80
2021/12/03 02:14:28;;;;;;;0.60;0.60;;;;;;;15.76;45.77;94892.00;10670858;27;20403;-79
2021/12/03 02:19:31;;;;;;;0.70;0.70;;;;;;;15.74;45.99;94896.59;10671868;27;20069;-79
2021/12/03 02:24:33;;;;;;;0.60;0.60;;;;;;;15.75;46.05;94892.19;10671894;27;20042;-79
2021/12/03 02:29:35;;;;;;;0.63;0.63;;;;;;;15.73;45.99;94900.22;10635865;27;20058;-80
2021/12/03 02:34:36;;;;;;;0.60;0.60;;;;;;;15.72;46.13;94911.63;10671586;27;20100;-79
2021/12/03 02:39:38;;;;;;;0.57;0.57;;;;;;;15.73;45.99;94907.22;10671238;27;20038;-79
2021/12/03 02:44:40;;;;;;;0.60;0.60;;;;;;;15.71;46.18;94915.22;10670808;27;20039;-79
2021/12/03 02:49:42;;;;;;;0.50;0.50;;;;;;;15.73;46.18;94920.22;10670812;27;20504;-80
2021/12/03 02:54:43;;;;;;;0.60;0.60;;;;;;;15.72;45.78;94935.06;10670583;27;20039;-80
2021/12/03 02:59:45;;;;;;;0.70;0.70;;;;;;;15.73;46.18;94941.03;10670304;27;20484;-79
2021/12/03 03:04:48;;;;;;;0.65;0.65;;;;;;;15.72;45.92;94948.06;10651146;27;20046;-79
2021/12/03 03:09:50;;;;;;;0.50;0.50;;;;;;;15.72;45.94;94955.88;10669570;27;20583;-79
2021/12/03 03:14:58;;;;;;;0.60;0.60;;;;;;;15.72;46.07;94961.06;10651672;27;20380;-80
2021/12/03 03:20:00;;;;;;;;;;;;;;;15.74;46.02;94960.84;10651878;27;20472;-79
2021/12/03 03:25:03;;;;;;;0.60;0.60;;;;;;;15.73;45.94;94960.06;10669529;27;20364;-79
2021/12/03 03:30:08;;;;;;;0.47;0.47;;;;;;;15.73;46.10;94962.66;10669173;27;20062;-79
2021/12/03 03:35:10;;;;;;;0.38;0.38;;;;;;;15.72;46.01;94961.06;10668935;27;20103;-79
2021/12/03 03:40:12;;;;;;;0.47;0.47;;;;;;;15.72;45.90;94971.47;10668795;27;20039;-80
2021/12/03 03:45:17;;;;;;;0.40;0.40;;;;;;;15.71;46.29;94980.28;10650136;27;20412;-80
2021/12/03 03:50:20;;;;;;;0.50;0.50;;;;;;;15.70;46.19;94978.72;10668275;27;20038;-80
2021/12/03 03:55:23;;;;;;;0.50;0.50;;;;;;;15.69;46.02;94979.72;10668050;27;20041;-79
2021/12/03 04:00:30;;;;;;;0.60;0.60;;;;;;;15.68;45.78;94985.13;10668007;27;20039;-80
2021/12/03 04:05:32;;;;;;;0.70;0.70;;;;;;;15.70;46.10;94990.91;10649538;27;20156;-80
2021/12/03 04:10:34;;;;;;;0.50;0.50;;;;;;;15.69;46.19;94997.13;10667407;27;20047;-80
2021/12/03 04:15:37;;;;;;;0.50;0.50;;;;;;;15.69;45.74;95010.94;10666099;27;20496;-79
2021/12/03 04:20:39;;;;;;;0.60;0.60;;;;;;;15.68;46.17;95006.72;10667143;27;20067;-80
2021/12/03 04:25:41;;;;;;;0.50;0.50;;;;;;;15.67;45.99;95014.75;10648560;27;20366;-81
2021/12/03 04:30:43;;;;;;;0.47;0.47;;;;;;;15.68;45.79;95018.94;10648185;27;20053;-81
2021/12/03 04:35:45;;;;;;;0.45;0.45;;;;;;;15.66;45.73;95016.56;10665644;27;20046;-81
2021/12/03 04:40:46;;;;;;;0.50;0.50;;;;;;;15.66;46.03;95018.38;10666542;27;20038;-80
2021/12/03 04:45:48;;;;;;;0.40;0.40;;;;;;;15.65;45.85;95025.34;10666253;27;20068;-80
2021/12/03 04:50:50;;;;;;;0.60;0.60;;;;;;;15.65;46.16;95033.16;10666049;27;20039;-79
2021/12/03 04:55:52;;;;;;;0.40;0.40;;;;;;;15.65;46.13;95045.38;10665518;27;20078;-79
2021/12/03 05:00:56;;;;;;;0.50;0.50;;;;;;;15.66;46.39;95045.16;10647246;27;20047;-79
2021/12/03 05:06:01;;;;;;;0.50;0.50;;;;;;;15.65;45.93;95059.19;10665383;27;20068;-79
2021/12/03 05:11:03;;;;;;;0.40;0.40;;;;;;;15.64;45.73;95062.81;10664924;27;20100;-79
2021/12/03 05:16:05;;;;;;;0.30;0.30;;;;;;;15.63;46.26;95071.63;10646778;27;20041;-80
2021/12/03 05:21:06;;;;;;;0.40;0.40;;;;;;;15.63;45.96;95071.63;10665153;27;20039;-79
2021/12/03 05:26:08;;;;;;;0.50;0.50;;;;;;;15.63;45.86;95079.41;10664586;27;20107;-78
2021/12/03 05:31:10;;;;;;;0.30;0.30;;;;;;;15.64;45.96;95091.44;10664463;27;20051;-79
2021/12/03 05:36:11;;;;;;;0.50;0.50;;;;;;;15.63;45.94;95100.22;10664631;27;20091;-79
2021/12/03 05:41:13;;;;;;;0.50;0.50;;;;;;;15.63;46.27;95104.66;10664427;27;20069;-80
2021/12/03 05:46:15;;;;;;;0.38;0.38;;;;;;;15.63;46.10;95123.63;10646100;27;20107;-79
2021/12/03 05:51:17;;;;;;;0.45;0.45;;;;;;;15.62;45.96;95126.47;10664077;27;20456;-80
2021/12/03 05:56:19;;;;;;;0.32;0.32;;;;;;;15.63;46.10;95135.84;10664187;27;20043;-79
2021/12/03 06:01:21;;;;;;;0.30;0.30;;;;;;;15.63;46.17;95148.88;10664014;27;20039;-80
2021/12/03 06:06:23;;;;;;;0.40;0.40;;;;;;;15.62;46.27;95160.28;10664033;27;20496;-79
2021/12/03 06:11:26;;;;;;;0.30;0.30;;;;;;;15.60;46.07;95168.28;10663674;27;20050;-80
2021/12/03 06:16:27;;;;;;;0.43;0.43;;;;;;;15.60;46.16;95174.31;10663954;27;20556;-80
2021/12/03 06:21:29;;;;;;;0.40;0.40;;;;;;;15.60;45.91;95176.91;10628585;27;20050;-80
2021/12/03 06:26:31;;;;;;;0.43;0.43;;;;;;;15.60;46.23;95186.50;10663705;27;20106;-81
2021/12/03 06:31:33;;;;;;;0.40;0.40;;;;;;;15.58;45.93;95185.91;10663276;27;20055;-80
2021/12/03 06:36:35;;;;;;;0.40;0.40;;;;;;;15.58;45.97;95186.69;10663669;27;20067;-81
2021/12/03 06:41:37;;;;;;;0.35;0.35;;;;;;;15.58;46.41;95188.53;10670939;27;20027;-79
2021/12/03 06:46:39;;;;;;;0.30;0.30;;;;;;;15.59;46.15;95196.13;10653569;27;20043;-79
2021/12/03 06:51:43;;;;;;;0.20;0.20;;;;;;;15.58;45.96;95207.50;10671568;27;20049;-79
2021/12/03 06:56:48;;;;;;;0.40;0.40;;;;;;;15.59;46.10;95213.53;10671446;27;20095;-79
2021/12/03 07:01:51;;;;;;;0.50;0.50;;;;;;;15.60;46.12;95220.31;10671335;27;20049;-79
2021/12/03 07:06:53;;;;;;;0.22;0.22;;;;;;;15.60;46.00;95230.72;10671266;27;20078;-79
2021/12/03 07:11:54;;;;;;;0.30;0.30;;;;;;;15.60;45.84;95236.75;10670985;27;20051;-79
2021/12/03 07:16:58;;;;;;;0.30;0.30;;;;;;;15.63;46.15;95239.91;10670814;27;20031;-79
2021/12/03 07:21:59;;;;;;;0.30;0.30;;;;;;;15.65;45.69;95250.91;10652282;27;20039;-79
2021/12/03 07:27:01;;;;;;;0.40;0.40;;;;;;;15.68;45.86;95248.69;10670322;27;20636;-80
2021/12/03 07:32:08;;;;;;;0.40;0.40;;;;;;;15.72;45.54;95262.09;10669277;27;20046;-80
2021/12/03 07:37:15;;;;;;;0.30;0.30;;;;;;;15.74;45.49;95266.06;10651499;27;20039;-80
2021/12/03 07:42:16;;;;;;;0.40;0.40;;;;;;;15.75;45.72;95272.09;10669541;27;20357;-80
2021/12/03 07:47:18;;;;;;;0.40;0.40;;;;;;;15.80;45.53;95277.50;10669898;27;20047;-81
2021/12/03 07:52:20;;;;;;;0.35;0.35;;;;;;;15.85;45.51;95287.28;10633548;27;20050;-81
2021/12/03 07:57:22;;;;;;;0.40;0.40;;;;;;;15.89;45.34;95288.44;10650639;27;20091;-80
2021/12/03 08:02:24;;;;;;;0.30;0.30;;;;;;;15.94;44.87;95294.63;10668956;27;20087;-80
2021/12/03 08:07:27;;;;;;;0.40;0.40;;;;;;;16.00;44.94;95292.97;10668504;27;20050;-80
2021/12/03 08:12:28;;;;;;;0.40;0.40;;;;;;;16.05;44.54;95300.97;10667954;27;20039;-80
2021/12/03 08:17:30;;;;;;;0.43;0.43;;;;;;;16.09;44.85;95299.53;10649767;27;20039;-79
2021/12/03 08:22:32;;;;;;;0.28;0.28;;;;;;;16.17;44.51;95308.09;10667578;27;20047;-79
2021/12/03 08:27:34;;;;;;;0.45;0.40;;;;;;;16.23;44.42;95315.09;10667744;27;20039;-79
2021/12/03 08:32:36;;;;;;;0.30;0.30;;;;;;;16.26;44.36;95312.84;10648932;27;20058;-79
2021/12/03 08:37:43;;;;;;;0.30;0.30;;;;;;;16.29;44.45;95317.63;10667386;27;20039;-79
2021/12/03 08:42:45;;;;;;;0.45;0.45;;;;;;;16.31;44.18;95315.59;10667086;27;20042;-79
2021/12/03 08:47:51;;;;;;;0.38;0.38;;;;;;;16.34;44.14;95327.44;10666924;27;20061;-79
2021/12/03 08:58:26;;;;;;;0.40;0.40;;;;;;;16.31;44.04;95327.84;10657466;27;20103;-79
2021/12/03 09:03:28;;;;;;;0.40;0.40;;;;;;;16.29;44.11;95335.88;10665807;27;20411;-79
2021/12/03 09:08:29;;;;;;;0.40;0.40;;;;;;;16.29;44.20;95342.91;10666230;27;20391;-80
2021/12/03 09:13:32;;;;;;;0.32;0.32;;;;;;;16.30;44.08;95342.69;10647595;27;20035;-79
2021/12/03 09:18:41;;;;;;;0.45;0.45;;;;;;;16.36;44.00;95345.44;10666015;27;20046;-79
2021/12/03 09:24:13;;;;;;;0.47;0.47;;;;;;;16.46;43.81;95346.59;10648732;27;20042;-79
2021/12/03 09:29:23;;;;;;;0.40;0.40;;;;;;;16.50;43.62;95357.38;10647459;27;20369;-80
2021/12/03 09:34:28;;;;;;;0.50;0.50;;;;;;;16.50;43.61;95347.75;10665426;27;20057;-79
2021/12/03 09:39:30;;;;;;;0.40;0.40;;;;;;;16.56;43.45;95353.94;10665636;27;20472;-79
2021/12/03 09:44:32;;;;;;;0.50;0.50;;;;;;;16.57;43.83;95346.91;10646769;27;20047;-79
2021/12/03 09:49:35;;;;;;;0.30;0.30;;;;;;;16.52;43.73;95331.91;10646616;27;20057;-79
2021/12/03 10:00:05;;;;;;;0.50;0.50;;;;;;;16.50;43.54;95344.34;10665837;27;20533;-78
2021/12/03 10:21:09;;;;;;;0.40;0.40;;;;;;;16.52;43.63;95318.09;10672898;27;20031;-78
2021/12/03 10:50:01;;;;;;;0.50;0.50;;;;;;;16.41;43.77;95286.47;10672589;27;20396;-79
2021/12/03 11:06:42;;;;;;;0.57;0.45;;;;;;;16.39;44.01;95287.72;10652546;27;20050;-79
2021/12/03 12:16:52;;;;;;;0.40;0.40;;;;;;;16.43;43.83;95265.44;10668463;27;20485;-78
2021/12/03 13:00:06;;;;;;;0.63;0.63;;;;;;;16.47;43.52;95245.78;10666736;27;20362;-78
2021/12/03 13:05:59;;;;;;;0.60;0.60;;;;;;;16.45;43.53;95235.56;10666482;27;20053;-78
2021/12/03 13:20:54;;;;;;;2.55;1.20;;;;;;;16.44;44.57;95238.38;10647225;27;20496;-85
2021/12/03 13:32:32;;;;;;;19.88;2.15;;;;;;;16.47;45.91;95233.53;10665319;27;20050;-85
2021/12/03 14:41:07;;;;;;;9.23;2.10;;;;;;;16.60;45.76;95219.59;10627792;27;20051;-91
2021/12/03 14:46:26;;;;;;;8.73;2.38;;;;;;;16.57;45.79;95221.84;10628880;27;20043;-90
2021/12/03 15:08:02;;;;;;;11.70;2.83;;;;;;;16.37;45.71;95230.63;10609995;27;20051;-90
2021/12/03 15:13:18;;;;;;;8.68;2.72;;;;;;;16.33;45.86;95224.25;10609305;27;20067;-90
2021/12/03 15:18:48;;;;;;;7.70;2.50;;;;;;;16.28;46.00;95221.50;10626679;27;20039;-91
2021/12/03 15:24:18;;;;;;;5.65;2.50;;;;;;;16.25;45.82;95221.91;10592186;27;20040;-90
2021/12/03 15:34:52;;;;;;;5.78;2.63;;;;;;;16.20;45.96;95216.56;10626743;27;20118;-90
2021/12/03 15:56:05;;;;;;;4.40;2.78;;;;;;;16.08;46.28;95213.81;10625171;27;20574;-90
2021/12/03 16:12:09;;;;;;;5.00;2.90;;;;;;;16.05;46.33;95206.44;10626415;27;20122;-92
2021/12/03 16:49:28;;;;;;;6.35;3.63;;;;;;;15.94;46.33;95179.31;10622933;27;20053;-90
2021/12/03 16:54:06;;;;;;;5.80;3.78;;;;;;;15.93;46.46;95185.50;10604891;27;20049;-90
2021/12/03 16:59:07;;;;;;;6.43;3.90;;;;;;;15.91;46.24;95193.53;10587781;27;20046;-90
2021/12/03 17:04:35;;;;;;;8.18;3.95;;;;;;;15.91;46.42;95192.75;10621714;27;20047;-90
2021/12/03 17:31:47;;;;;;;5.78;4.30;;;;;;;15.84;46.45;95166.75;10622538;27;20503;-92
2021/12/03 18:02:45;;;;;;;5.63;4.20;;;;;;;15.77;46.20;95140.78;10622702;27;20043;-91
2021/12/03 18:08:09;;;;;;;6.45;4.32;;;;;;;15.76;46.40;95147.00;10587562;27;20052;-91
2021/12/03 19:00:29;;;;;;;18.67;4.70;;;;;;;15.63;47.51;95091.63;10648874;27;20430;-87
2021/12/03 19:10:45;;;;;;;11.88;4.90;;;;;;;15.60;47.01;95079.84;10670433;27;20043;-80
2021/12/03 19:15:49;;;;;;;16.17;4.70;;;;;;;15.56;46.98;95068.28;10665284;27;20103;-91
2021/12/03 19:20:52;;;;;;;10.00;4.75;;;;;;;15.53;46.90;95066.88;10650818;27;20047;-89
2021/12/03 19:25:53;;;;;;;11.55;5.10;;;;;;;15.52;46.70;95062.69;10670217;27;20114;-88
2021/12/03 19:30:56;;;;;;;14.27;5.30;;;;;;;15.50;46.86;95059.50;10670071;27;20057;-79
2021/12/03 19:35:58;;;;;;;9.52;5.20;;;;;;;15.47;46.69;95043.53;10670112;27;20038;-75
2021/12/03 19:41:04;;;;;;;10.45;5.78;;;;;;;15.46;46.87;95044.53;10669916;27;20051;-90
2021/12/03 19:46:07;;;;;;;11.55;5.22;;;;;;;15.45;46.66;95040.38;10651822;27;20043;-91
2021/12/03 19:51:14;;;;;;;10.38;5.68;;;;;;;15.47;46.68;95038.34;10670634;27;20061;-90
2021/12/03 19:56:16;;;;;;;9.65;5.80;;;;;;;15.44;46.38;95031.75;10670670;27;20049;-86
2021/12/03 20:01:18;;;;;;;10.77;5.93;;;;;;;15.42;46.95;95021.56;10671124;27;20430;-90
2021/12/03 20:06:22;;;;;;;10.88;5.80;;;;;;;15.41;46.63;95012.19;10670635;27;20038;-89
2021/12/03 20:11:42;;;;;;;8.63;5.63;;;;;;;15.40;46.76;95017.59;10669941;27;20214;-89
2021/12/03 20:17:07;;;;;;;11.52;5.82;;;;;;;15.40;46.54;95012.41;10669796;27;20041;-92
2021/12/03 20:22:37;;;;;;;9.57;5.63;;;;;;;15.40;46.99;95000.19;10669223;27;20042;-91
2021/12/03 20:27:55;;;;;;;8.10;5.82;;;;;;;15.36;46.61;94980.00;10669053;27;20046;-75
2021/12/03 20:38:04;;;;;;;;;;;;;;;15.35;46.74;94981.00;10668317;27;20384;-75
2021/12/03 20:43:23;;;;;;;11.15;7.57;;;;;;;15.33;46.62;94981.22;10648596;27;20297;-85
2021/12/03 21:09:17;;;;;;;10.98;6.80;;;;;;;15.27;46.88;94931.88;10666841;27;20492;-86
2021/12/03 21:14:20;;;;;;;11.25;6.70;;;;;;;15.25;46.83;94934.69;10666444;27;20050;-75
2021/12/03 21:24:40;;;;;;;10.38;7.97;;;;;;;15.21;46.60;94930.94;10666461;27;20035;-86
2021/12/03 21:45:42;;;;;;;11.02;7.68;;;;;;;15.18;46.80;94884.59;10665338;27;20039;-83
2021/12/03 21:50:44;;;;;;;9.90;7.63;;;;;;;15.19;46.77;94862.75;10665904;27;20039;-77
2021/12/03 21:55:47;;;;;;;10.02;7.65;;;;;;;15.17;46.85;94857.78;10665765;27;20046;-88
2021/12/03 22:00:49;;;;;;;11.88;7.80;;;;;;;15.16;46.96;94847.59;10666445;27;20065;-84
2021/12/03 22:05:52;;;;;;;10.32;7.22;;;;;;;15.15;46.90;94846.03;10665813;27;20053;-86
2021/12/03 22:10:53;;;;;;;12.95;7.65;;;;;;;15.15;47.11;94838.22;10653886;27;20035;-91
2021/12/03 22:15:57;;;;;;;10.07;7.47;;;;;;;15.12;46.99;94834.25;10674133;27;20054;-79
2021/12/03 22:21:02;;;;;;;13.30;7.55;;;;;;;15.14;46.62;94821.03;10654964;27;20038;-88
2021/12/03 22:26:04;;;;;;;8.98;7.03;;;;;;;15.17;46.50;94807.59;10673493;27;20046;-89
2021/12/03 22:31:07;;;;;;;9.05;7.28;;;;;;;15.15;46.81;94792.22;10673720;27;20053;-76
2021/12/03 22:36:10;;;;;;;10.65;6.90;;;;;;;15.13;46.55;94778.66;10674212;27;20065;-85
2021/12/03 22:41:13;;;;;;;10.07;7.20;;;;;;;15.16;46.68;94761.81;10672270;27;20041;-94
2021/12/03 22:51:43;;;;;;;8.02;6.75;;;;;;;15.14;46.91;94759.44;10672361;27;20038;-92
2021/12/03 22:56:49;;;;;;;9.20;6.75;;;;;;;15.14;46.81;94743.03;10672108;27;20047;-82
2021/12/03 23:01:51;;;;;;;8.77;6.55;;;;;;;15.16;46.80;94741.84;10672343;27;20499;-87
2021/12/03 23:06:53;;;;;;;8.48;6.15;;;;;;;15.16;46.51;94738.41;10671674;27;20043;-89
2021/12/03 23:11:57;;;;;;;11.05;6.50;;;;;;;15.17;46.64;94724.41;10671149;27;20042;-75
2021/12/03 23:17:00;;;;;;;8.60;6.38;;;;;;;15.18;46.60;94713.81;10671396;27;20038;-75
2021/12/03 23:22:02;;;;;;;7.95;6.43;;;;;;;15.17;46.93;94688.81;10651722;27;20051;-79
2021/12/03 23:27:05;;;;;;;8.23;6.38;;;;;;;15.15;46.61;94680.44;10671020;27;20369;-91
2021/12/03 23:32:08;;;;;;;8.35;6.00;;;;;;;15.16;46.64;94679.44;10670135;27;20059;-81
2021/12/03 23:37:09;;;;;;;8.00;5.65;;;;;;;15.17;46.76;94673.22;10670706;27;20047;-87
2021/12/03 23:42:11;;;;;;;7.45;5.95;;;;;;;15.19;46.29;94673.81;10670030;27;20038;-90
2021/12/03 23:47:14;;;;;;;6.88;5.38;;;;;;;15.19;46.37;94654.81;10669832;27;20053;-85
2021/12/03 23:52:16;;;;;;;10.43;5.65;;;;;;;15.19;46.40;94650.41;10669520;27;20124;-78
2021/12/03 23:57:18;;;;;;;6.22;5.15;;;;;;;15.18;46.50;94635.03;10669343;27;20051;-89
